OMA610 OMDB-OOMS
Flight info
| Callsign | OMA610 |
|---|---|
| Flight time | 0h 37m |
| Altitude | 25000 |
| Route | ANVIX L223 TARDI N629 MUSUK T511 MCT |
| Aircraft | B38M/M-SDE1FGHILORVWXY/HB1 |
Departure
| Time | 2026-05-06 06:19 |
|---|---|
| Airport | Dubai International Airport (OMDB) |
Arrival
| Time | 2026-05-06 06:57 |
|---|---|
| Airport | Muscat International Airport (OOMS) |
| Time | Latitude | Longitude | Altitude | Speed | Heading |
|---|---|---|---|---|---|
| 2026-05-06 05:25 | 25.26111 | 55.34146 | 24 ft | 0 kts | 206° |
| 2026-05-06 06:03 | 25.26116 | 55.34148 | 24 ft | 2 kts | 204° |
| 2026-05-06 06:03 | 25.26131 | 55.34156 | 27 ft | 2 kts | 204° |
| 2026-05-06 06:04 | 25.26147 | 55.34163 | 27 ft | 2 kts | 200° |
| 2026-05-06 06:04 | 25.26162 | 55.34168 | 27 ft | 2 kts | 192° |
| 2026-05-06 06:04 | 25.26179 | 55.34170 | 25 ft | 2 kts | 163° |
| 2026-05-06 06:04 | 25.26193 | 55.34160 | 25 ft | 2 kts | 127° |
| 2026-05-06 06:05 | 25.26198 | 55.34152 | 27 ft | 1 kts | 121° |
| 2026-05-06 06:10 | 25.26191 | 55.34164 | 25 ft | 4 kts | 122° |
| 2026-05-06 06:11 | 25.26167 | 55.34206 | 24 ft | 8 kts | 122° |
| 2026-05-06 06:11 | 25.26132 | 55.34269 | 27 ft | 11 kts | 122° |
| 2026-05-06 06:11 | 25.26095 | 55.34334 | 24 ft | 13 kts | 122° |
| 2026-05-06 06:11 | 25.26047 | 55.34419 | 24 ft | 15 kts | 122° |
| 2026-05-06 06:12 | 25.26004 | 55.34528 | 26 ft | 16 kts | 82° |
| 2026-05-06 06:12 | 25.26084 | 55.34615 | 24 ft | 18 kts | 46° |
| 2026-05-06 06:12 | 25.26172 | 55.34720 | 24 ft | 20 kts | 45° |
| 2026-05-06 06:12 | 25.26288 | 55.34811 | 24 ft | 21 kts | 31° |
| 2026-05-06 06:13 | 25.26346 | 55.34934 | 27 ft | 20 kts | 123° |
| 2026-05-06 06:13 | 25.26263 | 55.35069 | 26 ft | 22 kts | 121° |
| 2026-05-06 06:13 | 25.26178 | 55.35218 | 26 ft | 24 kts | 122° |
| 2026-05-06 06:13 | 25.26085 | 55.35381 | 28 ft | 26 kts | 121° |
| 2026-05-06 06:14 | 25.25990 | 55.35552 | 28 ft | 27 kts | 122° |
| 2026-05-06 06:14 | 25.25889 | 55.35733 | 26 ft | 29 kts | 122° |
| 2026-05-06 06:14 | 25.25793 | 55.35903 | 27 ft | 30 kts | 122° |
| 2026-05-06 06:14 | 25.25681 | 55.36100 | 26 ft | 31 kts | 122° |
| 2026-05-06 06:15 | 25.25568 | 55.36305 | 29 ft | 32 kts | 122° |
| 2026-05-06 06:15 | 25.25450 | 55.36513 | 27 ft | 32 kts | 121° |
| 2026-05-06 06:15 | 25.25328 | 55.36731 | 27 ft | 34 kts | 122° |
| 2026-05-06 06:15 | 25.25204 | 55.36950 | 26 ft | 34 kts | 121° |
| 2026-05-06 06:16 | 25.25077 | 55.37177 | 28 ft | 35 kts | 122° |
| 2026-05-06 06:16 | 25.24953 | 55.37392 | 28 ft | 35 kts | 123° |
| 2026-05-06 06:16 | 25.24835 | 55.37614 | 27 ft | 36 kts | 119° |
| 2026-05-06 06:16 | 25.24703 | 55.37840 | 27 ft | 19 kts | 121° |
| 2026-05-06 06:17 | 25.24667 | 55.37906 | 27 ft | 5 kts | 121° |
| 2026-05-06 06:17 | 25.24663 | 55.37946 | 27 ft | 6 kts | 60° |
| 2026-05-06 06:17 | 25.24699 | 55.37973 | 28 ft | 7 kts | 30° |
| 2026-05-06 06:17 | 25.24736 | 55.37997 | 30 ft | 6 kts | 31° |
| 2026-05-06 06:18 | 25.24771 | 55.38019 | 32 ft | 7 kts | 26° |
| 2026-05-06 06:18 | 25.24821 | 55.38001 | 32 ft | 10 kts | 308° |
| 2026-05-06 06:18 | 25.24877 | 55.37899 | 33 ft | 33 kts | 301° |
| 2026-05-06 06:18 | 25.25116 | 55.37465 | 34 ft | 97 kts | 301° |
| 2026-05-06 06:19 | 25.25569 | 55.36654 | 32 ft | 150 kts | 301° |
| 2026-05-06 06:19 | 25.26193 | 55.35538 | 135 ft | 185 kts | 300° |
| 2026-05-06 06:19 | 25.26851 | 55.34333 | 779 ft | 188 kts | 300° |
| 2026-05-06 06:19 | 25.27540 | 55.33101 | 1464 ft | 192 kts | 298° |
| 2026-05-06 06:20 | 25.28252 | 55.31821 | 2198 ft | 199 kts | 298° |
| 2026-05-06 06:20 | 25.28932 | 55.30491 | 2778 ft | 211 kts | 289° |
| 2026-05-06 06:20 | 25.29058 | 55.28827 | 3229 ft | 227 kts | 257° |
| 2026-05-06 06:20 | 25.28574 | 55.27363 | 3625 ft | 237 kts | 245° |
| 2026-05-06 06:21 | 25.28186 | 55.26405 | 3857 ft | 245 kts | 246° |
| 2026-05-06 06:21 | 25.27296 | 55.24226 | 4700 ft | 248 kts | 245° |
| 2026-05-06 06:21 | 25.26788 | 55.23003 | 5083 ft | 256 kts | 245° |
| 2026-05-06 06:21 | 25.26038 | 55.21210 | 5893 ft | 254 kts | 245° |
| 2026-05-06 06:22 | 25.25299 | 55.19456 | 6652 ft | 257 kts | 245° |
| 2026-05-06 06:22 | 25.24250 | 55.17801 | 7156 ft | 271 kts | 220° |
| 2026-05-06 06:22 | 25.22548 | 55.16855 | 7584 ft | 285 kts | 190° |
| 2026-05-06 06:22 | 25.20540 | 55.16899 | 8021 ft | 297 kts | 163° |
| 2026-05-06 06:23 | 25.18779 | 55.17914 | 8853 ft | 289 kts | 137° |
| 2026-05-06 06:23 | 25.17510 | 55.19556 | 9565 ft | 292 kts | 120° |
| 2026-05-06 06:23 | 25.16488 | 55.21525 | 10161 ft | 297 kts | 118° |
| 2026-05-06 06:23 | 25.15478 | 55.23530 | 10952 ft | 299 kts | 117° |
| 2026-05-06 06:24 | 25.14470 | 55.25567 | 11717 ft | 302 kts | 117° |
| 2026-05-06 06:24 | 25.13462 | 55.27628 | 12520 ft | 306 kts | 117° |
| 2026-05-06 06:24 | 25.12463 | 55.29688 | 13342 ft | 308 kts | 117° |
| 2026-05-06 06:24 | 25.11444 | 55.31796 | 14097 ft | 312 kts | 117° |
| 2026-05-06 06:25 | 25.10481 | 55.33931 | 14807 ft | 316 kts | 114° |
| 2026-05-06 06:25 | 25.09559 | 55.36174 | 15516 ft | 320 kts | 114° |
| 2026-05-06 06:25 | 25.07840 | 55.40304 | 16802 ft | 328 kts | 115° |
| 2026-05-06 06:26 | 25.06902 | 55.42661 | 17388 ft | 337 kts | 112° |
| 2026-05-06 06:26 | 25.05970 | 55.45096 | 17704 ft | 353 kts | 113° |
| 2026-05-06 06:26 | 25.04982 | 55.47657 | 17927 ft | 370 kts | 113° |
| 2026-05-06 06:26 | 25.03959 | 55.50302 | 18126 ft | 386 kts | 113° |
| 2026-05-06 06:27 | 25.02972 | 55.52848 | 18324 ft | 397 kts | 113° |
| 2026-05-06 06:27 | 25.01887 | 55.55511 | 18616 ft | 404 kts | 118° |
| 2026-05-06 06:27 | 25.00469 | 55.58177 | 19249 ft | 402 kts | 121° |
| 2026-05-06 06:27 | 24.99102 | 55.60727 | 19621 ft | 409 kts | 121° |
| 2026-05-06 06:28 | 24.97771 | 55.63195 | 19995 ft | 413 kts | 121° |
| 2026-05-06 06:28 | 24.96558 | 55.65443 | 20465 ft | 413 kts | 121° |
| 2026-05-06 06:28 | 24.95152 | 55.68047 | 20842 ft | 418 kts | 121° |
| 2026-05-06 06:28 | 24.93541 | 55.70729 | 21270 ft | 421 kts | 127° |
| 2026-05-06 06:29 | 24.91788 | 55.73349 | 21737 ft | 424 kts | 127° |
| 2026-05-06 06:29 | 24.90173 | 55.75794 | 22128 ft | 428 kts | 126° |
| 2026-05-06 06:29 | 24.88434 | 55.78448 | 22591 ft | 430 kts | 126° |
| 2026-05-06 06:29 | 24.86854 | 55.80865 | 22972 ft | 433 kts | 126° |
| 2026-05-06 06:30 | 24.85077 | 55.83586 | 23378 ft | 437 kts | 126° |
| 2026-05-06 06:30 | 24.83278 | 55.86266 | 23725 ft | 440 kts | 127° |
| 2026-05-06 06:30 | 24.81405 | 55.89031 | 24077 ft | 443 kts | 127° |
| 2026-05-06 06:30 | 24.79554 | 55.91769 | 24414 ft | 446 kts | 127° |
| 2026-05-06 06:31 | 24.77582 | 55.94409 | 24744 ft | 447 kts | 137° |
| 2026-05-06 06:31 | 24.75289 | 55.96750 | 24888 ft | 453 kts | 138° |
| 2026-05-06 06:31 | 24.72951 | 55.99172 | 24857 ft | 463 kts | 138° |
| 2026-05-06 06:31 | 24.70605 | 56.01591 | 24866 ft | 470 kts | 138° |
| 2026-05-06 06:32 | 24.68189 | 56.04080 | 24868 ft | 477 kts | 138° |
| 2026-05-06 06:32 | 24.65754 | 56.06588 | 24875 ft | 483 kts | 138° |
| 2026-05-06 06:32 | 24.63293 | 56.09121 | 24876 ft | 488 kts | 138° |
| 2026-05-06 06:32 | 24.60791 | 56.11695 | 24880 ft | 492 kts | 138° |
| 2026-05-06 06:33 | 24.58308 | 56.14246 | 24887 ft | 495 kts | 137° |
| 2026-05-06 06:33 | 24.55945 | 56.17016 | 24895 ft | 496 kts | 132° |
| 2026-05-06 06:33 | 24.53674 | 56.19882 | 24896 ft | 496 kts | 131° |
| 2026-05-06 06:33 | 24.51435 | 56.22726 | 24901 ft | 496 kts | 131° |
| 2026-05-06 06:34 | 24.49180 | 56.25596 | 24895 ft | 496 kts | 131° |
| 2026-05-06 06:34 | 24.46918 | 56.28474 | 24887 ft | 496 kts | 131° |
| 2026-05-06 06:34 | 24.44655 | 56.31351 | 24881 ft | 496 kts | 131° |
| 2026-05-06 06:34 | 24.42416 | 56.34198 | 24884 ft | 496 kts | 131° |
| 2026-05-06 06:35 | 24.40143 | 56.37086 | 24875 ft | 496 kts | 131° |
| 2026-05-06 06:35 | 24.37879 | 56.39960 | 24877 ft | 496 kts | 131° |
| 2026-05-06 06:35 | 24.35615 | 56.42833 | 24868 ft | 496 kts | 131° |
| 2026-05-06 06:35 | 24.33385 | 56.45661 | 24863 ft | 496 kts | 131° |
| 2026-05-06 06:36 | 24.31113 | 56.48541 | 24867 ft | 496 kts | 131° |
| 2026-05-06 06:36 | 24.29038 | 56.51519 | 24869 ft | 496 kts | 126° |
| 2026-05-06 06:36 | 24.27030 | 56.54613 | 24864 ft | 496 kts | 126° |
| 2026-05-06 06:36 | 24.25015 | 56.57667 | 24863 ft | 496 kts | 126° |
| 2026-05-06 06:37 | 24.22972 | 56.60732 | 24865 ft | 496 kts | 127° |
| 2026-05-06 06:37 | 24.20936 | 56.63775 | 24864 ft | 496 kts | 127° |
| 2026-05-06 06:37 | 24.18899 | 56.66817 | 24871 ft | 496 kts | 127° |
| 2026-05-06 06:37 | 24.16858 | 56.69861 | 24872 ft | 496 kts | 127° |
| 2026-05-06 06:38 | 24.14802 | 56.72926 | 24875 ft | 496 kts | 127° |
| 2026-05-06 06:38 | 24.12783 | 56.75935 | 24878 ft | 496 kts | 127° |
| 2026-05-06 06:38 | 24.10744 | 56.78971 | 24877 ft | 495 kts | 127° |
| 2026-05-06 06:38 | 24.08700 | 56.82013 | 24883 ft | 495 kts | 127° |
| 2026-05-06 06:39 | 24.06630 | 56.85092 | 24884 ft | 495 kts | 127° |
| 2026-05-06 06:39 | 24.04609 | 56.88099 | 24884 ft | 495 kts | 127° |
| 2026-05-06 06:39 | 24.02565 | 56.91158 | 24888 ft | 497 kts | 127° |
| 2026-05-06 06:39 | 24.00596 | 56.94102 | 24730 ft | 496 kts | 126° |
| 2026-05-06 06:40 | 23.98613 | 56.97064 | 24233 ft | 492 kts | 126° |
| 2026-05-06 06:40 | 23.96605 | 57.00063 | 23490 ft | 489 kts | 126° |
| 2026-05-06 06:40 | 23.94560 | 57.03115 | 22668 ft | 486 kts | 126° |
| 2026-05-06 06:40 | 23.92674 | 57.05926 | 22126 ft | 476 kts | 126° |
| 2026-05-06 06:41 | 23.90990 | 57.08440 | 21299 ft | 476 kts | 126° |
| 2026-05-06 06:41 | 23.89115 | 57.11232 | 20586 ft | 462 kts | 125° |
| 2026-05-06 06:41 | 23.87254 | 57.14002 | 19807 ft | 455 kts | 125° |
| 2026-05-06 06:41 | 23.85369 | 57.16807 | 19125 ft | 452 kts | 125° |
| 2026-05-06 06:42 | 23.83544 | 57.19523 | 18494 ft | 444 kts | 125° |
| 2026-05-06 06:42 | 23.81694 | 57.22272 | 17410 ft | 442 kts | 125° |
| 2026-05-06 06:42 | 23.79916 | 57.24915 | 16604 ft | 426 kts | 125° |
| 2026-05-06 06:42 | 23.78190 | 57.27478 | 16178 ft | 415 kts | 125° |
| 2026-05-06 06:43 | 23.76476 | 57.30023 | 15492 ft | 414 kts | 125° |
| 2026-05-06 06:43 | 23.74766 | 57.32560 | 14826 ft | 412 kts | 125° |
| 2026-05-06 06:43 | 23.73097 | 57.35043 | 14164 ft | 409 kts | 124° |
| 2026-05-06 06:43 | 23.71793 | 57.37807 | 13455 ft | 406 kts | 110° |
| 2026-05-06 06:44 | 23.70788 | 57.40675 | 12853 ft | 401 kts | 110° |
| 2026-05-06 06:44 | 23.69817 | 57.43469 | 12248 ft | 396 kts | 110° |
| 2026-05-06 06:44 | 23.68858 | 57.46262 | 11895 ft | 386 kts | 110° |
| 2026-05-06 06:44 | 23.67929 | 57.48985 | 11648 ft | 380 kts | 110° |
| 2026-05-06 06:45 | 23.67014 | 57.51671 | 11379 ft | 381 kts | 110° |
| 2026-05-06 06:45 | 23.66101 | 57.54352 | 11150 ft | 371 kts | 110° |
| 2026-05-06 06:45 | 23.65213 | 57.56960 | 10945 ft | 358 kts | 110° |
| 2026-05-06 06:45 | 23.64370 | 57.59435 | 10738 ft | 346 kts | 110° |
| 2026-05-06 06:46 | 23.63541 | 57.61865 | 10534 ft | 335 kts | 110° |
| 2026-05-06 06:46 | 23.62732 | 57.64235 | 10348 ft | 324 kts | 110° |
| 2026-05-06 06:46 | 23.61968 | 57.66476 | 10160 ft | 313 kts | 110° |
| 2026-05-06 06:46 | 23.61212 | 57.68686 | 9877 ft | 308 kts | 110° |
| 2026-05-06 06:47 | 23.60466 | 57.70872 | 9443 ft | 306 kts | 110° |
| 2026-05-06 06:47 | 23.59730 | 57.73024 | 9028 ft | 301 kts | 110° |
| 2026-05-06 06:47 | 23.59011 | 57.75125 | 8667 ft | 289 kts | 110° |
| 2026-05-06 06:47 | 23.58323 | 57.77137 | 8318 ft | 284 kts | 110° |
| 2026-05-06 06:48 | 23.57670 | 57.79174 | 7995 ft | 283 kts | 102° |
| 2026-05-06 06:48 | 23.57586 | 57.81315 | 7629 ft | 283 kts | 90° |
| 2026-05-06 06:48 | 23.57485 | 57.83471 | 7027 ft | 288 kts | 93° |
| 2026-05-06 06:48 | 23.57459 | 57.85603 | 6566 ft | 281 kts | 89° |
| 2026-05-06 06:49 | 23.57555 | 57.87677 | 6347 ft | 272 kts | 86° |
| 2026-05-06 06:49 | 23.57696 | 57.89681 | 6049 ft | 260 kts | 86° |
| 2026-05-06 06:49 | 23.57848 | 57.91619 | 5742 ft | 251 kts | 86° |
| 2026-05-06 06:49 | 23.57997 | 57.93482 | 5430 ft | 243 kts | 86° |
| 2026-05-06 06:50 | 23.58142 | 57.95306 | 5161 ft | 241 kts | 86° |
| 2026-05-06 06:50 | 23.58287 | 57.97137 | 4853 ft | 239 kts | 86° |
| 2026-05-06 06:50 | 23.58432 | 57.98916 | 4551 ft | 231 kts | 86° |
| 2026-05-06 06:50 | 23.58570 | 58.00615 | 4265 ft | 223 kts | 86° |
| 2026-05-06 06:51 | 23.58702 | 58.02268 | 3993 ft | 214 kts | 86° |
| 2026-05-06 06:51 | 23.58829 | 58.03861 | 3729 ft | 207 kts | 86° |
| 2026-05-06 06:51 | 23.58912 | 58.04895 | 3551 ft | 201 kts | 86° |
| 2026-05-06 06:51 | 23.59068 | 58.06842 | 3266 ft | 191 kts | 87° |
| 2026-05-06 06:52 | 23.59182 | 58.08265 | 3010 ft | 185 kts | 85° |
| 2026-05-06 06:52 | 23.59259 | 58.09180 | 2892 ft | 179 kts | 86° |
| 2026-05-06 06:52 | 23.59364 | 58.10528 | 2653 ft | 178 kts | 87° |
| 2026-05-06 06:52 | 23.59503 | 58.12271 | 2372 ft | 168 kts | 86° |
| 2026-05-06 06:53 | 23.59569 | 58.13077 | 2249 ft | 152 kts | 87° |
| 2026-05-06 06:53 | 23.59662 | 58.14233 | 2063 ft | 154 kts | 87° |
| 2026-05-06 06:53 | 23.59749 | 58.15391 | 1850 ft | 153 kts | 86° |
| 2026-05-06 06:53 | 23.59846 | 58.16553 | 1641 ft | 153 kts | 86° |
| 2026-05-06 06:54 | 23.59941 | 58.17693 | 1447 ft | 152 kts | 85° |
| 2026-05-06 06:54 | 23.60031 | 58.18841 | 1265 ft | 151 kts | 84° |
| 2026-05-06 06:54 | 23.60123 | 58.19979 | 1089 ft | 150 kts | 83° |
| 2026-05-06 06:54 | 23.60216 | 58.21111 | 891 ft | 150 kts | 83° |
| 2026-05-06 06:55 | 23.60306 | 58.22230 | 704 ft | 148 kts | 83° |
| 2026-05-06 06:55 | 23.60388 | 58.23352 | 505 ft | 150 kts | 83° |
| 2026-05-06 06:55 | 23.60478 | 58.24488 | 321 ft | 151 kts | 84° |
| 2026-05-06 06:55 | 23.60576 | 58.25604 | 136 ft | 144 kts | 82° |
| 2026-05-06 06:56 | 23.60662 | 58.26664 | 46 ft | 124 kts | 84° |
| 2026-05-06 06:56 | 23.60718 | 58.27340 | 48 ft | 54 kts | 85° |
| 2026-05-06 06:56 | 23.60750 | 58.27766 | 46 ft | 57 kts | 85° |
| 2026-05-06 06:56 | 23.60780 | 58.28192 | 46 ft | 53 kts | 89° |
| 2026-05-06 06:57 | 23.60732 | 58.28419 | 45 ft | 18 kts | 113° |
| 2026-05-06 06:57 | 23.60688 | 58.28520 | 48 ft | 11 kts | 115° |
| 2026-05-06 06:57 | 23.60652 | 58.28604 | 48 ft | 14 kts | 114° |
| 2026-05-06 06:57 | 23.60578 | 58.28676 | 48 ft | 16 kts | 140° |
| 2026-05-06 06:58 | 23.60571 | 58.28791 | 47 ft | 15 kts | 86° |
| 2026-05-06 06:58 | 23.60511 | 58.28850 | 47 ft | 13 kts | 173° |
| 2026-05-06 06:58 | 23.60460 | 58.28814 | 47 ft | 7 kts | 266° |
| 2026-05-06 06:58 | 23.60466 | 58.28764 | 47 ft | 7 kts | 268° |
| 2026-05-06 06:59 | 23.60464 | 58.28744 | 47 ft | 1 kts | 264° |
| 2026-05-06 06:59 | 23.60463 | 58.28734 | 47 ft | 0 kts | 264° |
| 2026-05-06 06:59 | 23.60463 | 58.28733 | 47 ft | 0 kts | 264° |